sensor_id;sensor_type;location;lat;lon;timestamp;temperature;humidity
14877;DHT22;69691;48.172;17.070;2023-05-23T00:00:58;17.10;99.90
14877;DHT22;69691;48.172;17.070;2023-05-23T00:03:25;17.10;99.90
14877;DHT22;69691;48.172;17.070;2023-05-23T00:05:52;17.10;99.90
14877;DHT22;69691;48.172;17.070;2023-05-23T00:08:17;17.10;99.90
14877;DHT22;69691;48.172;17.070;2023-05-23T00:10:44;17.10;99.90
14877;DHT22;69691;48.172;17.070;2023-05-23T00:13:10;17.10;99.90
14877;DHT22;69691;48.172;17.070;2023-05-23T00:15:40;17.00;99.90
14877;DHT22;69691;48.172;17.070;2023-05-23T00:18:07;17.00;99.90
14877;DHT22;69691;48.172;17.070;2023-05-23T00:20:35;17.00;99.90
14877;DHT22;69691;48.172;17.070;2023-05-23T00:23:09;17.00;99.90
14877;DHT22;69691;48.172;17.070;2023-05-23T00:25:35;17.00;99.90
14877;DHT22;69691;48.172;17.070;2023-05-23T00:28:02;16.90;99.90
14877;DHT22;69691;48.172;17.070;2023-05-23T00:30:30;16.90;99.90
14877;DHT22;69691;48.172;17.070;2023-05-23T00:32:57;16.90;99.90
14877;DHT22;69691;48.172;17.070;2023-05-23T00:35:23;16.90;99.90
14877;DHT22;69691;48.172;17.070;2023-05-23T00:37:50;16.80;99.90
14877;DHT22;69691;48.172;17.070;2023-05-23T00:40:17;16.90;99.90
14877;DHT22;69691;48.172;17.070;2023-05-23T00:42:43;16.80;99.90
14877;DHT22;69691;48.172;17.070;2023-05-23T00:45:10;16.80;99.90
14877;DHT22;69691;48.172;17.070;2023-05-23T00:47:41;16.80;99.90
14877;DHT22;69691;48.172;17.070;2023-05-23T00:50:11;16.80;99.90
14877;DHT22;69691;48.172;17.070;2023-05-23T00:52:37;16.80;99.90
14877;DHT22;69691;48.172;17.070;2023-05-23T00:55:04;16.80;99.90
14877;DHT22;69691;48.172;17.070;2023-05-23T00:57:31;16.70;99.90
14877;DHT22;69691;48.172;17.070;2023-05-23T01:00:04;16.80;99.90
14877;DHT22;69691;48.172;17.070;2023-05-23T01:02:40;16.70;99.90
14877;DHT22;69691;48.172;17.070;2023-05-23T01:05:10;16.70;99.90
14877;DHT22;69691;48.172;17.070;2023-05-23T01:07:39;16.70;99.90
14877;DHT22;69691;48.172;17.070;2023-05-23T01:10:07;16.70;99.90
14877;DHT22;69691;48.172;17.070;2023-05-23T01:15:36;16.80;99.90
14877;DHT22;69691;48.172;17.070;2023-05-23T01:18:18;16.80;99.90
14877;DHT22;69691;48.172;17.070;2023-05-23T01:20:58;16.70;99.90
14877;DHT22;69691;48.172;17.070;2023-05-23T01:26:43;16.80;99.90
14877;DHT22;69691;48.172;17.070;2023-05-23T01:29:28;16.80;99.90
14877;DHT22;69691;48.172;17.070;2023-05-23T01:31:57;16.70;99.90
14877;DHT22;69691;48.172;17.070;2023-05-23T01:34:24;16.80;99.90
14877;DHT22;69691;48.172;17.070;2023-05-23T01:36:54;16.80;99.90
14877;DHT22;69691;48.172;17.070;2023-05-23T01:39:21;16.90;99.90
14877;DHT22;69691;48.172;17.070;2023-05-23T01:41:49;16.90;99.90
14877;DHT22;69691;48.172;17.070;2023-05-23T01:44:16;16.90;99.90
14877;DHT22;69691;48.172;17.070;2023-05-23T01:46:42;16.90;99.90
14877;DHT22;69691;48.172;17.070;2023-05-23T01:49:11;17.00;99.90
14877;DHT22;69691;48.172;17.070;2023-05-23T01:51:39;17.00;99.90
14877;DHT22;69691;48.172;17.070;2023-05-23T01:54:05;17.00;99.90
14877;DHT22;69691;48.172;17.070;2023-05-23T01:56:32;16.90;99.90
14877;DHT22;69691;48.172;17.070;2023-05-23T01:58:59;16.90;99.90
14877;DHT22;69691;48.172;17.070;2023-05-23T02:01:26;16.90;99.90
14877;DHT22;69691;48.172;17.070;2023-05-23T02:03:52;16.90;99.90
14877;DHT22;69691;48.172;17.070;2023-05-23T02:06:18;16.90;99.90
14877;DHT22;69691;48.172;17.070;2023-05-23T02:08:45;16.90;99.90
14877;DHT22;69691;48.172;17.070;2023-05-23T02:11:11;16.80;99.90
14877;DHT22;69691;48.172;17.070;2023-05-23T02:13:38;16.80;99.90
14877;DHT22;69691;48.172;17.070;2023-05-23T02:16:04;16.80;99.90
14877;DHT22;69691;48.172;17.070;2023-05-23T02:18:30;16.90;99.90
14877;DHT22;69691;48.172;17.070;2023-05-23T02:20:56;17.00;99.90
14877;DHT22;69691;48.172;17.070;2023-05-23T02:23:22;17.00;99.90
14877;DHT22;69691;48.172;17.070;2023-05-23T02:25:48;17.00;99.90
14877;DHT22;69691;48.172;17.070;2023-05-23T02:28:13;17.00;99.90
14877;DHT22;69691;48.172;17.070;2023-05-23T02:30:40;17.10;99.90
14877;DHT22;69691;48.172;17.070;2023-05-23T02:33:06;17.10;99.90
14877;DHT22;69691;48.172;17.070;2023-05-23T02:35:32;17.10;99.90
14877;DHT22;69691;48.172;17.070;2023-05-23T02:37:59;17.10;99.90
14877;DHT22;69691;48.172;17.070;2023-05-23T02:40:25;17.10;99.90
14877;DHT22;69691;48.172;17.070;2023-05-23T02:42:51;17.20;99.90
14877;DHT22;69691;48.172;17.070;2023-05-23T02:45:17;17.20;99.90
14877;DHT22;69691;48.172;17.070;2023-05-23T02:47:43;17.20;99.90
14877;DHT22;69691;48.172;17.070;2023-05-23T02:50:09;17.20;99.90
14877;DHT22;69691;48.172;17.070;2023-05-23T02:52:35;17.20;99.90
14877;DHT22;69691;48.172;17.070;2023-05-23T02:55:02;17.30;99.90
14877;DHT22;69691;48.172;17.070;2023-05-23T02:57:32;17.30;99.90
14877;DHT22;69691;48.172;17.070;2023-05-23T02:59:58;17.30;99.90
14877;DHT22;69691;48.172;17.070;2023-05-23T03:02:23;17.30;99.90
14877;DHT22;69691;48.172;17.070;2023-05-23T03:04:49;17.30;99.90
14877;DHT22;69691;48.172;17.070;2023-05-23T03:07:15;17.30;99.90
14877;DHT22;69691;48.172;17.070;2023-05-23T03:09:41;17.30;99.90
14877;DHT22;69691;48.172;17.070;2023-05-23T03:12:07;17.40;99.90
14877;DHT22;69691;48.172;17.070;2023-05-23T03:14:33;17.40;99.90
14877;DHT22;69691;48.172;17.070;2023-05-23T03:16:58;17.40;99.90
14877;DHT22;69691;48.172;17.070;2023-05-23T03:19:25;17.40;99.90
14877;DHT22;69691;48.172;17.070;2023-05-23T03:21:51;17.50;99.90
14877;DHT22;69691;48.172;17.070;2023-05-23T03:24:17;17.50;99.90
14877;DHT22;69691;48.172;17.070;2023-05-23T03:26:43;17.60;99.90
14877;DHT22;69691;48.172;17.070;2023-05-23T03:29:11;17.70;99.90
14877;DHT22;69691;48.172;17.070;2023-05-23T03:31:36;17.70;99.80
14877;DHT22;69691;48.172;17.070;2023-05-23T03:34:03;17.80;99.60
14877;DHT22;69691;48.172;17.070;2023-05-23T03:36:32;17.90;99.40
14877;DHT22;69691;48.172;17.070;2023-05-23T03:38:58;18.00;99.60
14877;DHT22;69691;48.172;17.070;2023-05-23T03:41:25;18.00;99.00
14877;DHT22;69691;48.172;17.070;2023-05-23T03:43:51;18.10;98.80
14877;DHT22;69691;48.172;17.070;2023-05-23T03:46:17;18.20;98.50
14877;DHT22;69691;48.172;17.070;2023-05-23T03:48:43;18.20;98.20
14877;DHT22;69691;48.172;17.070;2023-05-23T03:51:09;18.30;98.10
14877;DHT22;69691;48.172;17.070;2023-05-23T03:53:38;18.40;98.10
14877;DHT22;69691;48.172;17.070;2023-05-23T03:56:04;18.50;97.40
14877;DHT22;69691;48.172;17.070;2023-05-23T03:58:30;18.60;97.60
14877;DHT22;69691;48.172;17.070;2023-05-23T04:01:00;18.70;97.30
14877;DHT22;69691;48.172;17.070;2023-05-23T04:03:26;18.80;97.00
14877;DHT22;69691;48.172;17.070;2023-05-23T04:05:52;19.00;96.40
14877;DHT22;69691;48.172;17.070;2023-05-23T04:08:18;19.00;96.00
14877;DHT22;69691;48.172;17.070;2023-05-23T04:10:47;19.10;95.50
14877;DHT22;69691;48.172;17.070;2023-05-23T04:13:13;19.10;95.40
14877;DHT22;69691;48.172;17.070;2023-05-23T04:15:40;19.20;95.30
14877;DHT22;69691;48.172;17.070;2023-05-23T04:18:09;19.20;95.20
14877;DHT22;69691;48.172;17.070;2023-05-23T04:20:36;19.30;94.50
14877;DHT22;69691;48.172;17.070;2023-05-23T04:23:03;19.40;94.20
14877;DHT22;69691;48.172;17.070;2023-05-23T04:25:31;19.40;93.80
14877;DHT22;69691;48.172;17.070;2023-05-23T04:28:26;19.50;93.50
14877;DHT22;69691;48.172;17.070;2023-05-23T04:30:53;19.60;93.30
14877;DHT22;69691;48.172;17.070;2023-05-23T04:33:22;19.60;92.90
14877;DHT22;69691;48.172;17.070;2023-05-23T04:35:49;19.60;92.50
14877;DHT22;69691;48.172;17.070;2023-05-23T04:38:16;19.60;92.60
14877;DHT22;69691;48.172;17.070;2023-05-23T04:40:42;19.70;92.40
14877;DHT22;69691;48.172;17.070;2023-05-23T04:43:34;19.60;92.30
14877;DHT22;69691;48.172;17.070;2023-05-23T04:46:24;19.70;92.00
14877;DHT22;69691;48.172;17.070;2023-05-23T04:49:03;19.70;91.80
14877;DHT22;69691;48.172;17.070;2023-05-23T04:51:29;19.70;91.60
14877;DHT22;69691;48.172;17.070;2023-05-23T04:54:02;19.60;91.60
14877;DHT22;69691;48.172;17.070;2023-05-23T04:56:28;19.60;91.70
14877;DHT22;69691;48.172;17.070;2023-05-23T04:58:54;19.50;91.50
14877;DHT22;69691;48.172;17.070;2023-05-23T05:01:21;19.40;91.80
14877;DHT22;69691;48.172;17.070;2023-05-23T05:03:50;19.40;91.70
14877;DHT22;69691;48.172;17.070;2023-05-23T05:06:17;19.50;91.60
14877;DHT22;69691;48.172;17.070;2023-05-23T05:08:43;19.70;91.50
14877;DHT22;69691;48.172;17.070;2023-05-23T05:11:10;19.90;91.40
14877;DHT22;69691;48.172;17.070;2023-05-23T05:13:36;20.30;90.90
14877;DHT22;69691;48.172;17.070;2023-05-23T05:16:03;20.60;90.20
14877;DHT22;69691;48.172;17.070;2023-05-23T05:18:29;21.00;88.70
14877;DHT22;69691;48.172;17.070;2023-05-23T05:20:57;21.40;86.00
14877;DHT22;69691;48.172;17.070;2023-05-23T05:23:26;21.70;83.90
14877;DHT22;69691;48.172;17.070;2023-05-23T05:25:56;22.10;82.00
14877;DHT22;69691;48.172;17.070;2023-05-23T05:28:23;22.40;80.50
14877;DHT22;69691;48.172;17.070;2023-05-23T05:30:51;22.70;78.70
14877;DHT22;69691;48.172;17.070;2023-05-23T05:33:20;22.90;77.40
14877;DHT22;69691;48.172;17.070;2023-05-23T05:35:54;23.20;75.70
14877;DHT22;69691;48.172;17.070;2023-05-23T05:38:20;23.30;73.00
14877;DHT22;69691;48.172;17.070;2023-05-23T05:40:47;23.40;72.40
14877;DHT22;69691;48.172;17.070;2023-05-23T05:43:13;23.50;72.20
14877;DHT22;69691;48.172;17.070;2023-05-23T05:45:39;23.60;71.00
14877;DHT22;69691;48.172;17.070;2023-05-23T05:48:05;23.70;69.90
14877;DHT22;69691;48.172;17.070;2023-05-23T05:50:32;24.00;69.20
14877;DHT22;69691;48.172;17.070;2023-05-23T05:52:58;24.20;67.90
14877;DHT22;69691;48.172;17.070;2023-05-23T05:55:24;23.90;66.30
14877;DHT22;69691;48.172;17.070;2023-05-23T05:57:53;23.80;68.60
14877;DHT22;69691;48.172;17.070;2023-05-23T06:00:19;24.00;68.30
14877;DHT22;69691;48.172;17.070;2023-05-23T06:02:50;24.10;67.10
14877;DHT22;69691;48.172;17.070;2023-05-23T06:05:27;24.20;66.90
14877;DHT22;69691;48.172;17.070;2023-05-23T06:07:52;24.30;67.60
14877;DHT22;69691;48.172;17.070;2023-05-23T06:10:18;24.50;66.90
14877;DHT22;69691;48.172;17.070;2023-05-23T06:12:44;24.70;65.40
14877;DHT22;69691;48.172;17.070;2023-05-23T06:15:11;24.90;64.20
14877;DHT22;69691;48.172;17.070;2023-05-23T06:17:39;24.90;63.10
14877;DHT22;69691;48.172;17.070;2023-05-23T06:20:05;24.80;63.20
14877;DHT22;69691;48.172;17.070;2023-05-23T06:22:34;24.90;63.30
14877;DHT22;69691;48.172;17.070;2023-05-23T06:25:00;25.20;62.50
14877;DHT22;69691;48.172;17.070;2023-05-23T06:27:26;25.50;61.30
14877;DHT22;69691;48.172;17.070;2023-05-23T06:29:51;25.60;60.40
14877;DHT22;69691;48.172;17.070;2023-05-23T06:32:18;25.80;60.10
14877;DHT22;69691;48.172;17.070;2023-05-23T06:34:43;25.90;58.50
14877;DHT22;69691;48.172;17.070;2023-05-23T06:37:09;26.00;58.40
14877;DHT22;69691;48.172;17.070;2023-05-23T06:39:35;26.10;58.10
14877;DHT22;69691;48.172;17.070;2023-05-23T06:42:01;26.20;58.40
14877;DHT22;69691;48.172;17.070;2023-05-23T06:44:37;26.50;57.80
14877;DHT22;69691;48.172;17.070;2023-05-23T06:47:03;26.70;56.60
14877;DHT22;69691;48.172;17.070;2023-05-23T06:49:29;26.90;56.10
14877;DHT22;69691;48.172;17.070;2023-05-23T06:51:55;27.20;55.30
14877;DHT22;69691;48.172;17.070;2023-05-23T06:54:21;27.50;55.00
14877;DHT22;69691;48.172;17.070;2023-05-23T06:56:48;27.60;53.90
14877;DHT22;69691;48.172;17.070;2023-05-23T06:59:14;27.50;53.50
14877;DHT22;69691;48.172;17.070;2023-05-23T07:01:41;27.50;53.30
14877;DHT22;69691;48.172;17.070;2023-05-23T07:04:06;27.50;53.50
14877;DHT22;69691;48.172;17.070;2023-05-23T07:06:34;27.50;52.70
14877;DHT22;69691;48.172;17.070;2023-05-23T07:09:01;27.30;52.60
14877;DHT22;69691;48.172;17.070;2023-05-23T07:11:29;27.10;53.40
14877;DHT22;69691;48.172;17.070;2023-05-23T07:13:58;27.30;53.70
14877;DHT22;69691;48.172;17.070;2023-05-23T07:16:34;27.50;54.00
14877;DHT22;69691;48.172;17.070;2023-05-23T07:19:04;27.70;53.40
14877;DHT22;69691;48.172;17.070;2023-05-23T07:21:33;27.90;52.90
14877;DHT22;69691;48.172;17.070;2023-05-23T07:24:00;27.80;52.20
14877;DHT22;69691;48.172;17.070;2023-05-23T07:26:27;27.90;52.10
14877;DHT22;69691;48.172;17.070;2023-05-23T07:28:54;28.00;52.20
14877;DHT22;69691;48.172;17.070;2023-05-23T07:31:21;28.10;52.20
14877;DHT22;69691;48.172;17.070;2023-05-23T07:33:49;28.10;52.20
14877;DHT22;69691;48.172;17.070;2023-05-23T07:36:21;27.80;52.30
14877;DHT22;69691;48.172;17.070;2023-05-23T07:38:48;27.60;52.00
14877;DHT22;69691;48.172;17.070;2023-05-23T07:41:14;27.60;52.60
14877;DHT22;69691;48.172;17.070;2023-05-23T07:43:40;27.80;52.60
14877;DHT22;69691;48.172;17.070;2023-05-23T07:46:06;27.90;51.60
14877;DHT22;69691;48.172;17.070;2023-05-23T07:48:32;27.90;51.50
14877;DHT22;69691;48.172;17.070;2023-05-23T07:50:58;28.00;51.60
14877;DHT22;69691;48.172;17.070;2023-05-23T07:53:24;28.00;51.90
14877;DHT22;69691;48.172;17.070;2023-05-23T07:55:51;28.10;52.50
14877;DHT22;69691;48.172;17.070;2023-05-23T07:58:18;28.10;51.50
14877;DHT22;69691;48.172;17.070;2023-05-23T08:00:46;28.10;51.30
14877;DHT22;69691;48.172;17.070;2023-05-23T08:03:28;28.00;51.10
14877;DHT22;69691;48.172;17.070;2023-05-23T08:06:03;27.80;51.50
14877;DHT22;69691;48.172;17.070;2023-05-23T08:08:29;27.80;51.60
14877;DHT22;69691;48.172;17.070;2023-05-23T08:10:55;27.80;51.70
14877;DHT22;69691;48.172;17.070;2023-05-23T08:13:26;27.80;52.00
14877;DHT22;69691;48.172;17.070;2023-05-23T08:16:11;27.90;52.40
14877;DHT22;69691;48.172;17.070;2023-05-23T08:18:38;27.70;52.60
14877;DHT22;69691;48.172;17.070;2023-05-23T08:21:05;27.60;52.30
14877;DHT22;69691;48.172;17.070;2023-05-23T08:23:31;27.60;52.80
14877;DHT22;69691;48.172;17.070;2023-05-23T08:25:57;27.50;53.10
14877;DHT22;69691;48.172;17.070;2023-05-23T08:28:23;27.30;53.20
14877;DHT22;69691;48.172;17.070;2023-05-23T08:30:53;27.10;53.70
14877;DHT22;69691;48.172;17.070;2023-05-23T08:33:19;27.10;53.90
14877;DHT22;69691;48.172;17.070;2023-05-23T08:35:47;27.10;54.20
14877;DHT22;69691;48.172;17.070;2023-05-23T08:38:16;27.10;54.30
14877;DHT22;69691;48.172;17.070;2023-05-23T08:40:55;27.10;54.50
14877;DHT22;69691;48.172;17.070;2023-05-23T08:43:23;27.10;54.60
14877;DHT22;69691;48.172;17.070;2023-05-23T08:45:50;27.10;54.50
14877;DHT22;69691;48.172;17.070;2023-05-23T08:48:18;27.10;54.80
14877;DHT22;69691;48.172;17.070;2023-05-23T08:50:51;27.10;54.70
14877;DHT22;69691;48.172;17.070;2023-05-23T08:53:20;27.10;54.80
14877;DHT22;69691;48.172;17.070;2023-05-23T08:55:54;27.10;54.60
14877;DHT22;69691;48.172;17.070;2023-05-23T08:58:26;27.20;54.70
14877;DHT22;69691;48.172;17.070;2023-05-23T09:00:55;27.20;54.50
14877;DHT22;69691;48.172;17.070;2023-05-23T09:03:21;27.10;54.60
14877;DHT22;69691;48.172;17.070;2023-05-23T09:06:05;27.10;54.90
14877;DHT22;69691;48.172;17.070;2023-05-23T09:08:32;27.10;55.00
14877;DHT22;69691;48.172;17.070;2023-05-23T09:10:59;27.10;55.00
14877;DHT22;69691;48.172;17.070;2023-05-23T09:13:29;27.20;54.80
14877;DHT22;69691;48.172;17.070;2023-05-23T09:16:02;27.10;54.60
14877;DHT22;69691;48.172;17.070;2023-05-23T09:18:40;27.10;54.10
14877;DHT22;69691;48.172;17.070;2023-05-23T09:21:12;27.10;54.70
14877;DHT22;69691;48.172;17.070;2023-05-23T09:23:45;27.10;54.70
14877;DHT22;69691;48.172;17.070;2023-05-23T09:26:12;27.10;54.80
14877;DHT22;69691;48.172;17.070;2023-05-23T09:28:40;27.10;54.50
14877;DHT22;69691;48.172;17.070;2023-05-23T09:31:07;27.10;54.80
14877;DHT22;69691;48.172;17.070;2023-05-23T09:33:39;27.30;54.50
14877;DHT22;69691;48.172;17.070;2023-05-23T09:36:10;27.30;54.10
14877;DHT22;69691;48.172;17.070;2023-05-23T09:38:37;27.20;53.90
14877;DHT22;69691;48.172;17.070;2023-05-23T09:41:04;27.30;54.30
14877;DHT22;69691;48.172;17.070;2023-05-23T09:43:30;27.30;53.70
14877;DHT22;69691;48.172;17.070;2023-05-23T09:46:07;27.20;53.90
14877;DHT22;69691;48.172;17.070;2023-05-23T09:48:34;27.20;53.80
14877;DHT22;69691;48.172;17.070;2023-05-23T09:51:03;27.10;54.60
14877;DHT22;69691;48.172;17.070;2023-05-23T09:53:30;27.10;54.30
14877;DHT22;69691;48.172;17.070;2023-05-23T09:55:58;27.10;54.10
14877;DHT22;69691;48.172;17.070;2023-05-23T09:58:26;27.10;54.10
14877;DHT22;69691;48.172;17.070;2023-05-23T10:00:55;27.20;54.30
14877;DHT22;69691;48.172;17.070;2023-05-23T10:03:48;27.20;54.00
14877;DHT22;69691;48.172;17.070;2023-05-23T10:06:26;27.30;55.00
14877;DHT22;69691;48.172;17.070;2023-05-23T10:09:05;27.30;54.30
14877;DHT22;69691;48.172;17.070;2023-05-23T10:14:09;27.30;54.70
14877;DHT22;69691;48.172;17.070;2023-05-23T10:17:07;27.40;54.90
14877;DHT22;69691;48.172;17.070;2023-05-23T10:19:57;27.60;54.40
14877;DHT22;69691;48.172;17.070;2023-05-23T10:22:36;27.50;54.40
14877;DHT22;69691;48.172;17.070;2023-05-23T10:25:04;27.40;53.90
14877;DHT22;69691;48.172;17.070;2023-05-23T10:27:31;27.40;54.10
14877;DHT22;69691;48.172;17.070;2023-05-23T10:29:58;27.40;54.50
14877;DHT22;69691;48.172;17.070;2023-05-23T10:32:26;27.60;54.20
14877;DHT22;69691;48.172;17.070;2023-05-23T10:35:09;27.60;54.70
14877;DHT22;69691;48.172;17.070;2023-05-23T10:38:03;27.70;54.90
14877;DHT22;69691;48.172;17.070;2023-05-23T10:40:49;27.70;54.50
14877;DHT22;69691;48.172;17.070;2023-05-23T10:44:01;27.70;54.50
14877;DHT22;69691;48.172;17.070;2023-05-23T10:46:50;27.70;54.50
14877;DHT22;69691;48.172;17.070;2023-05-23T10:49:18;27.70;54.20
14877;DHT22;69691;48.172;17.070;2023-05-23T10:51:50;27.70;54.00
14877;DHT22;69691;48.172;17.070;2023-05-23T10:54:18;27.70;53.80
14877;DHT22;69691;48.172;17.070;2023-05-23T10:56:57;27.70;53.30
14877;DHT22;69691;48.172;17.070;2023-05-23T10:59:28;27.70;53.60
14877;DHT22;69691;48.172;17.070;2023-05-23T11:01:55;27.70;53.30
14877;DHT22;69691;48.172;17.070;2023-05-23T11:04:25;27.80;53.00
14877;DHT22;69691;48.172;17.070;2023-05-23T11:06:53;27.80;52.60
14877;DHT22;69691;48.172;17.070;2023-05-23T11:09:20;27.70;52.40
14877;DHT22;69691;48.172;17.070;2023-05-23T11:12:02;27.80;52.50
14877;DHT22;69691;48.172;17.070;2023-05-23T11:16:59;28.00;53.00
14877;DHT22;69691;48.172;17.070;2023-05-23T11:19:27;28.00;53.00
14877;DHT22;69691;48.172;17.070;2023-05-23T11:21:59;28.10;52.00
14877;DHT22;69691;48.172;17.070;2023-05-23T11:27:15;28.10;51.80
14877;DHT22;69691;48.172;17.070;2023-05-23T11:29:42;28.10;52.60
14877;DHT22;69691;48.172;17.070;2023-05-23T11:32:11;28.10;51.80
14877;DHT22;69691;48.172;17.070;2023-05-23T11:34:38;28.20;51.50
14877;DHT22;69691;48.172;17.070;2023-05-23T11:37:04;28.20;51.40
14877;DHT22;69691;48.172;17.070;2023-05-23T11:39:30;28.10;51.00
14877;DHT22;69691;48.172;17.070;2023-05-23T11:42:00;28.20;50.60
14877;DHT22;69691;48.172;17.070;2023-05-23T11:44:28;28.20;50.60
14877;DHT22;69691;48.172;17.070;2023-05-23T11:47:05;28.30;50.50
14877;DHT22;69691;48.172;17.070;2023-05-23T11:49:36;28.20;50.00
14877;DHT22;69691;48.172;17.070;2023-05-23T11:52:04;28.10;50.20
14877;DHT22;69691;48.172;17.070;2023-05-23T11:54:33;28.10;51.10
14877;DHT22;69691;48.172;17.070;2023-05-23T11:56:59;28.20;51.20
14877;DHT22;69691;48.172;17.070;2023-05-23T11:59:26;28.40;51.10
14877;DHT22;69691;48.172;17.070;2023-05-23T12:01:53;28.40;50.40
14877;DHT22;69691;48.172;17.070;2023-05-23T12:04:19;28.50;50.30
14877;DHT22;69691;48.172;17.070;2023-05-23T12:06:46;28.60;51.10
14877;DHT22;69691;48.172;17.070;2023-05-23T12:09:13;28.70;51.20
14877;DHT22;69691;48.172;17.070;2023-05-23T12:11:40;28.70;50.50
14877;DHT22;69691;48.172;17.070;2023-05-23T12:14:07;28.60;50.50
14877;DHT22;69691;48.172;17.070;2023-05-23T12:16:34;28.70;51.50
14877;DHT22;69691;48.172;17.070;2023-05-23T12:19:03;28.70;50.40
14877;DHT22;69691;48.172;17.070;2023-05-23T12:21:43;28.70;49.90
14877;DHT22;69691;48.172;17.070;2023-05-23T12:24:18;28.80;50.10
14877;DHT22;69691;48.172;17.070;2023-05-23T12:29:28;28.80;49.80
14877;DHT22;69691;48.172;17.070;2023-05-23T12:31:59;28.90;50.20
14877;DHT22;69691;48.172;17.070;2023-05-23T12:34:26;28.80;49.90
14877;DHT22;69691;48.172;17.070;2023-05-23T12:36:56;28.90;49.80
14877;DHT22;69691;48.172;17.070;2023-05-23T12:39:27;28.90;50.70
14877;DHT22;69691;48.172;17.070;2023-05-23T12:41:55;28.90;50.60
14877;DHT22;69691;48.172;17.070;2023-05-23T12:44:33;28.90;50.00
14877;DHT22;69691;48.172;17.070;2023-05-23T12:46:58;28.90;50.00
14877;DHT22;69691;48.172;17.070;2023-05-23T12:49:24;28.90;49.80
14877;DHT22;69691;48.172;17.070;2023-05-23T12:51:50;28.80;50.20
14877;DHT22;69691;48.172;17.070;2023-05-23T12:54:16;28.90;50.50
14877;DHT22;69691;48.172;17.070;2023-05-23T12:56:42;29.00;50.60
14877;DHT22;69691;48.172;17.070;2023-05-23T12:59:08;29.10;50.40
14877;DHT22;69691;48.172;17.070;2023-05-23T13:01:34;29.30;49.80
14877;DHT22;69691;48.172;17.070;2023-05-23T13:04:00;29.60;49.70
14877;DHT22;69691;48.172;17.070;2023-05-23T13:06:26;29.90;49.10
14877;DHT22;69691;48.172;17.070;2023-05-23T13:08:52;30.30;48.50
14877;DHT22;69691;48.172;17.070;2023-05-23T13:11:20;30.60;47.90
14877;DHT22;69691;48.172;17.070;2023-05-23T13:13:47;31.10;47.30
14877;DHT22;69691;48.172;17.070;2023-05-23T13:16:13;31.40;46.70
14877;DHT22;69691;48.172;17.070;2023-05-23T13:18:40;31.60;46.00
14877;DHT22;69691;48.172;17.070;2023-05-23T13:21:06;31.80;45.60
14877;DHT22;69691;48.172;17.070;2023-05-23T13:23:33;31.90;45.40
14877;DHT22;69691;48.172;17.070;2023-05-23T13:26:00;31.90;45.10
14877;DHT22;69691;48.172;17.070;2023-05-23T13:28:26;31.70;45.30
14877;DHT22;69691;48.172;17.070;2023-05-23T13:30:52;31.60;45.40
14877;DHT22;69691;48.172;17.070;2023-05-23T13:33:18;31.40;45.70
14877;DHT22;69691;48.172;17.070;2023-05-23T13:35:46;31.30;45.80
14877;DHT22;69691;48.172;17.070;2023-05-23T13:38:13;31.10;46.20
14877;DHT22;69691;48.172;17.070;2023-05-23T13:40:39;30.80;50.60
14877;DHT22;69691;48.172;17.070;2023-05-23T13:43:05;30.20;53.90
14877;DHT22;69691;48.172;17.070;2023-05-23T13:45:31;29.60;58.50
14877;DHT22;69691;48.172;17.070;2023-05-23T13:47:58;29.10;61.60
14877;DHT22;69691;48.172;17.070;2023-05-23T13:50:24;28.60;65.10
14877;DHT22;69691;48.172;17.070;2023-05-23T13:52:50;28.10;67.50
14877;DHT22;69691;48.172;17.070;2023-05-23T13:55:16;27.50;68.70
14877;DHT22;69691;48.172;17.070;2023-05-23T13:57:43;27.00;70.60
14877;DHT22;69691;48.172;17.070;2023-05-23T14:00:10;26.60;72.00
14877;DHT22;69691;48.172;17.070;2023-05-23T14:02:36;26.10;72.20
14877;DHT22;69691;48.172;17.070;2023-05-23T14:05:03;25.60;77.90
14877;DHT22;69691;48.172;17.070;2023-05-23T14:07:30;25.10;79.20
14877;DHT22;69691;48.172;17.070;2023-05-23T14:09:56;24.10;80.80
14877;DHT22;69691;48.172;17.070;2023-05-23T14:12:22;23.30;87.20
14877;DHT22;69691;48.172;17.070;2023-05-23T14:14:48;22.40;89.40
14877;DHT22;69691;48.172;17.070;2023-05-23T14:17:17;21.00;90.80
14877;DHT22;69691;48.172;17.070;2023-05-23T14:19:43;19.20;93.80
14877;DHT22;69691;48.172;17.070;2023-05-23T14:22:09;17.40;99.20
14877;DHT22;69691;48.172;17.070;2023-05-23T14:24:35;17.30;99.90
14877;DHT22;69691;48.172;17.070;2023-05-23T14:27:02;17.50;99.90
14877;DHT22;69691;48.172;17.070;2023-05-23T14:29:28;17.90;99.90
14877;DHT22;69691;48.172;17.070;2023-05-23T14:31:54;18.20;99.90
14877;DHT22;69691;48.172;17.070;2023-05-23T14:34:20;18.40;99.90
14877;DHT22;69691;48.172;17.070;2023-05-23T14:36:46;18.40;99.90
14877;DHT22;69691;48.172;17.070;2023-05-23T14:39:11;18.60;99.90
14877;DHT22;69691;48.172;17.070;2023-05-23T14:41:37;18.70;99.90
14877;DHT22;69691;48.172;17.070;2023-05-23T14:44:03;18.90;99.90
14877;DHT22;69691;48.172;17.070;2023-05-23T14:46:29;18.90;99.90
14877;DHT22;69691;48.172;17.070;2023-05-23T14:48:55;18.90;99.90
14877;DHT22;69691;48.172;17.070;2023-05-23T14:51:21;18.80;99.90
14877;DHT22;69691;48.172;17.070;2023-05-23T14:53:47;18.70;99.90
14877;DHT22;69691;48.172;17.070;2023-05-23T14:56:12;18.80;99.90
14877;DHT22;69691;48.172;17.070;2023-05-23T14:58:38;18.90;99.90
14877;DHT22;69691;48.172;17.070;2023-05-23T15:01:11;19.00;99.90
14877;DHT22;69691;48.172;17.070;2023-05-23T15:03:37;19.20;99.90
14877;DHT22;69691;48.172;17.070;2023-05-23T15:06:03;19.40;99.90
14877;DHT22;69691;48.172;17.070;2023-05-23T15:08:31;19.40;99.90
14877;DHT22;69691;48.172;17.070;2023-05-23T15:10:58;19.50;99.90
14877;DHT22;69691;48.172;17.070;2023-05-23T15:13:24;19.60;99.90
14877;DHT22;69691;48.172;17.070;2023-05-23T15:15:50;19.50;99.90
14877;DHT22;69691;48.172;17.070;2023-05-23T15:18:16;19.60;99.90
14877;DHT22;69691;48.172;17.070;2023-05-23T15:20:42;19.60;99.90
14877;DHT22;69691;48.172;17.070;2023-05-23T15:23:08;19.60;99.90
14877;DHT22;69691;48.172;17.070;2023-05-23T15:25:34;19.50;99.90
14877;DHT22;69691;48.172;17.070;2023-05-23T15:28:00;19.50;99.90
14877;DHT22;69691;48.172;17.070;2023-05-23T15:30:26;19.40;99.90
14877;DHT22;69691;48.172;17.070;2023-05-23T15:32:52;19.40;99.90
14877;DHT22;69691;48.172;17.070;2023-05-23T15:35:18;19.40;99.90
14877;DHT22;69691;48.172;17.070;2023-05-23T15:37:43;19.30;99.90
14877;DHT22;69691;48.172;17.070;2023-05-23T15:40:11;19.40;99.90